sensor_id;sensor_type;location;lat;lon;timestamp;pressure;altitude;pressure_sealevel;temperature;humidity
84501;BME280;74725;44.210;17.906;2024-02-28T00:02:10;97919.06;;;11.76;99.18
84501;BME280;74725;44.210;17.906;2024-02-28T00:04:35;97916.78;;;11.74;98.80
84501;BME280;74725;44.210;17.906;2024-02-28T00:07:01;97918.00;;;11.73;100.00
84501;BME280;74725;44.210;17.906;2024-02-28T00:09:26;97919.06;;;11.76;100.00
84501;BME280;74725;44.210;17.906;2024-02-28T00:11:52;97911.06;;;11.69;99.91
84501;BME280;74725;44.210;17.906;2024-02-28T00:14:17;97920.84;;;11.70;99.29
84501;BME280;74725;44.210;17.906;2024-02-28T00:16:44;97933.34;;;11.71;98.97
84501;BME280;74725;44.210;17.906;2024-02-28T00:19:11;97929.38;;;11.72;100.00
84501;BME280;74725;44.210;17.906;2024-02-28T00:21:38;97933.44;;;11.67;100.00
84501;BME280;74725;44.210;17.906;2024-02-28T00:24:05;97932.78;;;11.63;100.00
84501;BME280;74725;44.210;17.906;2024-02-28T00:26:30;97929.03;;;11.57;100.00
84501;BME280;74725;44.210;17.906;2024-02-28T00:28:56;97930.13;;;11.60;100.00
84501;BME280;74725;44.210;17.906;2024-02-28T00:31:22;97932.56;;;11.70;100.00
84501;BME280;74725;44.210;17.906;2024-02-28T00:33:47;97934.09;;;11.71;99.61
84501;BME280;74725;44.210;17.906;2024-02-28T00:36:13;97935.97;;;11.74;98.72
84501;BME280;74725;44.210;17.906;2024-02-28T00:38:40;97941.03;;;11.76;98.69
84501;BME280;74725;44.210;17.906;2024-02-28T00:41:06;97939.50;;;11.75;98.29
84501;BME280;74725;44.210;17.906;2024-02-28T00:43:32;97936.66;;;11.79;98.67
84501;BME280;74725;44.210;17.906;2024-02-28T00:45:57;97933.13;;;11.78;98.57
84501;BME280;74725;44.210;17.906;2024-02-28T00:48:24;97936.66;;;11.79;98.22
84501;BME280;74725;44.210;17.906;2024-02-28T00:50:50;97934.00;;;11.75;97.55
84501;BME280;74725;44.210;17.906;2024-02-28T00:53:16;97933.09;;;11.65;97.54
84501;BME280;74725;44.210;17.906;2024-02-28T00:55:42;97928.59;;;11.59;98.15
84501;BME280;74725;44.210;17.906;2024-02-28T00:58:08;97933.88;;;11.66;97.92
84501;BME280;74725;44.210;17.906;2024-02-28T01:00:33;97939.50;;;11.75;99.61
84501;BME280;74725;44.210;17.906;2024-02-28T01:03:00;97923.94;;;11.85;97.91
84501;BME280;74725;44.210;17.906;2024-02-28T01:05:30;97936.69;;;11.91;96.70
84501;BME280;74725;44.210;17.906;2024-02-28T01:07:56;97934.19;;;11.97;96.20
84501;BME280;74725;44.210;17.906;2024-02-28T01:10:22;97926.47;;;11.92;96.92
84501;BME280;74725;44.210;17.906;2024-02-28T01:12:48;97927.78;;;12.00;96.64
84501;BME280;74725;44.210;17.906;2024-02-28T01:15:13;97932.09;;;12.01;96.36
84501;BME280;74725;44.210;17.906;2024-02-28T01:17:39;97932.09;;;12.01;96.65
84501;BME280;74725;44.210;17.906;2024-02-28T01:20:06;97928.78;;;11.93;97.19
84501;BME280;74725;44.210;17.906;2024-02-28T01:22:32;97931.28;;;11.88;97.76
84501;BME280;74725;44.210;17.906;2024-02-28T01:24:58;97926.78;;;11.81;98.47
84501;BME280;74725;44.210;17.906;2024-02-28T01:27:25;97929.75;;;11.87;98.68
84501;BME280;74725;44.210;17.906;2024-02-28T01:29:50;97922.97;;;11.91;97.77
84501;BME280;74725;44.210;17.906;2024-02-28T01:32:16;97926.72;;;11.97;98.25
84501;BME280;74725;44.210;17.906;2024-02-28T01:34:41;97916.38;;;12.02;98.34
84501;BME280;74725;44.210;17.906;2024-02-28T01:37:07;97923.50;;;11.99;98.50
84501;BME280;74725;44.210;17.906;2024-02-28T01:39:32;97926.78;;;11.81;99.10
84501;BME280;74725;44.210;17.906;2024-02-28T01:41:58;97929.19;;;11.79;98.18
84501;BME280;74725;44.210;17.906;2024-02-28T01:44:23;97920.19;;;11.79;99.60
84501;BME280;74725;44.210;17.906;2024-02-28T01:46:49;97919.25;;;11.85;99.38
84501;BME280;74725;44.210;17.906;2024-02-28T01:49:16;97923.06;;;11.88;99.07
84501;BME280;74725;44.210;17.906;2024-02-28T01:51:42;97919.13;;;11.89;98.59
84501;BME280;74725;44.210;17.906;2024-02-28T01:54:07;97918.66;;;11.78;98.75
84501;BME280;74725;44.210;17.906;2024-02-28T01:56:33;97923.94;;;11.85;98.54
84501;BME280;74725;44.210;17.906;2024-02-28T01:59:00;97926.34;;;11.95;97.23
84501;BME280;74725;44.210;17.906;2024-02-28T02:01:27;97923.31;;;11.93;97.39
84501;BME280;74725;44.210;17.906;2024-02-28T02:03:53;97919.13;;;11.89;97.23
84501;BME280;74725;44.210;17.906;2024-02-28T02:06:19;97918.34;;;11.88;97.38
84501;BME280;74725;44.210;17.906;2024-02-28T02:08:44;97918.13;;;11.95;96.76
84501;BME280;74725;44.210;17.906;2024-02-28T02:11:11;97911.47;;;11.96;96.18
84501;BME280;74725;44.210;17.906;2024-02-28T02:13:51;97915.63;;;12.01;95.23
84501;BME280;74725;44.210;17.906;2024-02-28T02:16:18;97920.34;;;12.01;95.62
84501;BME280;74725;44.210;17.906;2024-02-28T02:18:44;97924.28;;;11.87;96.57
84501;BME280;74725;44.210;17.906;2024-02-28T02:21:11;97925.66;;;11.79;98.38
84501;BME280;74725;44.210;17.906;2024-02-28T02:23:38;97928.97;;;11.73;98.36
84501;BME280;74725;44.210;17.906;2024-02-28T02:26:07;97928.53;;;11.75;98.46
84501;BME280;74725;44.210;17.906;2024-02-28T02:28:32;97936.09;;;11.71;100.00
84501;BME280;74725;44.210;17.906;2024-02-28T02:30:58;97938.53;;;11.82;100.00
84501;BME280;74725;44.210;17.906;2024-02-28T02:33:24;97942.22;;;11.75;100.00
84501;BME280;74725;44.210;17.906;2024-02-28T02:35:52;97934.84;;;11.59;98.57
84501;BME280;74725;44.210;17.906;2024-02-28T02:38:18;97942.84;;;11.54;98.92
84501;BME280;74725;44.210;17.906;2024-02-28T02:40:43;97934.97;;;11.56;99.05
84501;BME280;74725;44.210;17.906;2024-02-28T02:43:09;97943.72;;;11.50;98.61
84501;BME280;74725;44.210;17.906;2024-02-28T02:45:34;97943.47;;;11.45;98.66
84501;BME280;74725;44.210;17.906;2024-02-28T02:48:00;97951.69;;;11.45;99.01
84501;BME280;74725;44.210;17.906;2024-02-28T02:50:26;97953.78;;;11.41;99.90
84501;BME280;74725;44.210;17.906;2024-02-28T02:52:51;97953.34;;;11.13;100.00
84501;BME280;74725;44.210;17.906;2024-02-28T02:55:17;97952.06;;;11.18;100.00
84501;BME280;74725;44.210;17.906;2024-02-28T02:57:42;97951.66;;;11.32;100.00
84501;BME280;74725;44.210;17.906;2024-02-28T03:00:09;97949.13;;;11.25;100.00
84501;BME280;74725;44.210;17.906;2024-02-28T03:02:35;97960.75;;;11.29;100.00
84501;BME280;74725;44.210;17.906;2024-02-28T03:05:04;97951.19;;;11.21;100.00
84501;BME280;74725;44.210;17.906;2024-02-28T03:07:30;97953.66;;;11.32;100.00
84501;BME280;74725;44.210;17.906;2024-02-28T03:09:55;97961.72;;;11.22;100.00
84501;BME280;74725;44.210;17.906;2024-02-28T03:12:21;97957.03;;;11.23;100.00
84501;BME280;74725;44.210;17.906;2024-02-28T03:14:48;97968.31;;;11.25;100.00
84501;BME280;74725;44.210;17.906;2024-02-28T03:17:13;97967.41;;;11.15;100.00
84501;BME280;74725;44.210;17.906;2024-02-28T03:19:41;97969.63;;;11.20;100.00
84501;BME280;74725;44.210;17.906;2024-02-28T03:22:07;97972.69;;;11.22;100.00
84501;BME280;74725;44.210;17.906;2024-02-28T03:24:32;97963.47;;;11.16;100.00
84501;BME280;74725;44.210;17.906;2024-02-28T03:27:01;97970.34;;;11.08;100.00
84501;BME280;74725;44.210;17.906;2024-02-28T03:29:27;97967.59;;;11.08;100.00
84501;BME280;74725;44.210;17.906;2024-02-28T03:31:53;97970.06;;;11.02;100.00
84501;BME280;74725;44.210;17.906;2024-02-28T03:34:19;97967.00;;;11.00;100.00
84501;BME280;74725;44.210;17.906;2024-02-28T03:36:44;97971.63;;;11.04;100.00
84501;BME280;74725;44.210;17.906;2024-02-28T03:39:10;97964.59;;;11.02;100.00
84501;BME280;74725;44.210;17.906;2024-02-28T03:41:36;97975.22;;;11.00;100.00
84501;BME280;74725;44.210;17.906;2024-02-28T03:44:01;97975.06;;;10.91;100.00
84501;BME280;74725;44.210;17.906;2024-02-28T03:46:27;97978.06;;;10.97;100.00
84501;BME280;74725;44.210;17.906;2024-02-28T03:48:52;97967.78;;;11.01;100.00
84501;BME280;74725;44.210;17.906;2024-02-28T03:51:18;97968.63;;;10.98;100.00
84501;BME280;74725;44.210;17.906;2024-02-28T03:53:43;97974.03;;;11.01;100.00
84501;BME280;74725;44.210;17.906;2024-02-28T03:56:09;97984.31;;;10.97;100.00
84501;BME280;74725;44.210;17.906;2024-02-28T03:58:35;97979.94;;;11.00;100.00
84501;BME280;74725;44.210;17.906;2024-02-28T04:01:00;97981.47;;;11.01;100.00
84501;BME280;74725;44.210;17.906;2024-02-28T04:03:26;97982.69;;;11.00;100.00
84501;BME280;74725;44.210;17.906;2024-02-28T04:05:51;97982.94;;;10.89;100.00
84501;BME280;74725;44.210;17.906;2024-02-28T04:08:17;97991.25;;;10.86;100.00
84501;BME280;74725;44.210;17.906;2024-02-28T04:10:43;97985.09;;;10.82;100.00
84501;BME280;74725;44.210;17.906;2024-02-28T04:13:08;97987.06;;;10.81;100.00
84501;BME280;74725;44.210;17.906;2024-02-28T04:15:34;97994.59;;;10.77;100.00
84501;BME280;74725;44.210;17.906;2024-02-28T04:18:00;97988.53;;;10.69;100.00
84501;BME280;74725;44.210;17.906;2024-02-28T04:20:25;98004.59;;;10.67;100.00
84501;BME280;74725;44.210;17.906;2024-02-28T04:22:51;98004.53;;;10.71;100.00
84501;BME280;74725;44.210;17.906;2024-02-28T04:25:17;97999.47;;;10.69;100.00
84501;BME280;74725;44.210;17.906;2024-02-28T04:27:42;98010.94;;;10.81;100.00
84501;BME280;74725;44.210;17.906;2024-02-28T04:30:09;98006.31;;;10.77;100.00
84501;BME280;74725;44.210;17.906;2024-02-28T04:32:36;98009.81;;;10.78;100.00
84501;BME280;74725;44.210;17.906;2024-02-28T04:35:01;98001.63;;;10.78;100.00
84501;BME280;74725;44.210;17.906;2024-02-28T04:37:28;98016.84;;;10.79;100.00
84501;BME280;74725;44.210;17.906;2024-02-28T04:39:53;98013.16;;;10.86;100.00
84501;BME280;74725;44.210;17.906;2024-02-28T04:42:19;98023.88;;;10.96;100.00
84501;BME280;74725;44.210;17.906;2024-02-28T04:44:45;98016.81;;;10.95;100.00
84501;BME280;74725;44.210;17.906;2024-02-28T04:47:10;98029.00;;;10.94;100.00
84501;BME280;74725;44.210;17.906;2024-02-28T04:49:37;98028.91;;;10.98;100.00
84501;BME280;74725;44.210;17.906;2024-02-28T04:52:04;98020.09;;;10.90;100.00
84501;BME280;74725;44.210;17.906;2024-02-28T04:54:31;98026.69;;;10.93;100.00
84501;BME280;74725;44.210;17.906;2024-02-28T04:56:57;98025.56;;;10.90;100.00
84501;BME280;74725;44.210;17.906;2024-02-28T04:59:22;98033.47;;;10.88;100.00
84501;BME280;74725;44.210;17.906;2024-02-28T05:01:48;98035.75;;;10.90;100.00
84501;BME280;74725;44.210;17.906;2024-02-28T05:04:13;98035.06;;;10.86;100.00
84501;BME280;74725;44.210;17.906;2024-02-28T05:06:39;98035.59;;;10.81;100.00
84501;BME280;74725;44.210;17.906;2024-02-28T05:09:05;98042.84;;;10.71;100.00
84501;BME280;74725;44.210;17.906;2024-02-28T05:11:31;98039.19;;;10.77;100.00
84501;BME280;74725;44.210;17.906;2024-02-28T05:13:56;98035.69;;;10.77;100.00
84501;BME280;74725;44.210;17.906;2024-02-28T05:16:22;98041.09;;;10.81;100.00
84501;BME280;74725;44.210;17.906;2024-02-28T05:18:47;98039.44;;;10.83;100.00
84501;BME280;74725;44.210;17.906;2024-02-28T05:21:13;98033.09;;;10.86;100.00
84501;BME280;74725;44.210;17.906;2024-02-28T05:23:41;98038.34;;;10.97;100.00
84501;BME280;74725;44.210;17.906;2024-02-28T05:26:07;98050.59;;;10.92;100.00
84501;BME280;74725;44.210;17.906;2024-02-28T05:28:36;98056.38;;;10.94;100.00
84501;BME280;74725;44.210;17.906;2024-02-28T05:31:20;98056.56;;;11.04;100.00
84501;BME280;74725;44.210;17.906;2024-02-28T05:33:46;98058.78;;;11.09;100.00
84501;BME280;74725;44.210;17.906;2024-02-28T05:36:12;98053.72;;;11.07;100.00
84501;BME280;74725;44.210;17.906;2024-02-28T05:38:37;98052.44;;;10.95;100.00
84501;BME280;74725;44.210;17.906;2024-02-28T05:41:03;98064.53;;;10.98;100.00
84501;BME280;74725;44.210;17.906;2024-02-28T05:43:28;98067.53;;;11.04;100.00
84501;BME280;74725;44.210;17.906;2024-02-28T05:45:54;98072.13;;;10.90;100.00
84501;BME280;74725;44.210;17.906;2024-02-28T05:48:20;98082.78;;;11.05;100.00
84501;BME280;74725;44.210;17.906;2024-02-28T05:50:45;98082.25;;;11.10;100.00
84501;BME280;74725;44.210;17.906;2024-02-28T05:53:11;98085.66;;;11.14;100.00
84501;BME280;74725;44.210;17.906;2024-02-28T05:55:37;98096.97;;;11.16;100.00
84501;BME280;74725;44.210;17.906;2024-02-28T05:58:02;98097.22;;;11.21;100.00
84501;BME280;74725;44.210;17.906;2024-02-28T06:00:28;98099.28;;;11.17;100.00
84501;BME280;74725;44.210;17.906;2024-02-28T06:02:54;98098.75;;;11.22;100.00
84501;BME280;74725;44.210;17.906;2024-02-28T06:05:20;98099.78;;;11.29;100.00
84501;BME280;74725;44.210;17.906;2024-02-28T06:07:45;98107.56;;;11.30;100.00
84501;BME280;74725;44.210;17.906;2024-02-28T06:10:11;98114.00;;;11.40;100.00
84501;BME280;74725;44.210;17.906;2024-02-28T06:12:37;98111.44;;;11.33;100.00
84501;BME280;74725;44.210;17.906;2024-02-28T06:15:04;98118.03;;;11.35;100.00
84501;BME280;74725;44.210;17.906;2024-02-28T06:17:31;98110.50;;;11.39;100.00
84501;BME280;74725;44.210;17.906;2024-02-28T06:19:57;98114.78;;;11.40;100.00
84501;BME280;74725;44.210;17.906;2024-02-28T06:22:22;98125.75;;;11.40;100.00
84501;BME280;74725;44.210;17.906;2024-02-28T06:24:48;98126.69;;;11.34;100.00
84501;BME280;74725;44.210;17.906;2024-02-28T06:27:15;98129.00;;;11.19;100.00
84501;BME280;74725;44.210;17.906;2024-02-28T06:29:40;98130.47;;;11.23;100.00
84501;BME280;74725;44.210;17.906;2024-02-28T06:32:06;98135.44;;;11.29;100.00
84501;BME280;74725;44.210;17.906;2024-02-28T06:34:36;98138.41;;;11.34;100.00
84501;BME280;74725;44.210;17.906;2024-02-28T06:37:02;98142.19;;;11.40;100.00
84501;BME280;74725;44.210;17.906;2024-02-28T06:39:29;98138.16;;;11.45;100.00
84501;BME280;74725;44.210;17.906;2024-02-28T06:41:54;98137.47;;;11.41;100.00
84501;BME280;74725;44.210;17.906;2024-02-28T06:44:20;98155.66;;;11.51;100.00
84501;BME280;74725;44.210;17.906;2024-02-28T06:46:46;98155.09;;;11.72;100.00
84501;BME280;74725;44.210;17.906;2024-02-28T06:49:11;98150.94;;;11.81;100.00
84501;BME280;74725;44.210;17.906;2024-02-28T06:51:37;98148.22;;;11.97;99.63
84501;BME280;74725;44.210;17.906;2024-02-28T06:54:03;98166.59;;;12.13;99.60
84501;BME280;74725;44.210;17.906;2024-02-28T06:56:30;98167.97;;;12.34;98.96
84501;BME280;74725;44.210;17.906;2024-02-28T06:58:56;98163.31;;;12.60;98.35
84501;BME280;74725;44.210;17.906;2024-02-28T07:01:23;98161.69;;;12.88;97.10
84501;BME280;74725;44.210;17.906;2024-02-28T07:03:48;98161.81;;;13.10;96.09
84501;BME280;74725;44.210;17.906;2024-02-28T07:06:14;98166.31;;;13.42;95.05
84501;BME280;74725;44.210;17.906;2024-02-28T07:08:40;98164.94;;;13.72;92.59
84501;BME280;74725;44.210;17.906;2024-02-28T07:11:13;98158.16;;;13.99;91.26
84501;BME280;74725;44.210;17.906;2024-02-28T07:13:38;98169.63;;;14.19;90.77
84501;BME280;74725;44.210;17.906;2024-02-28T07:16:04;98177.81;;;14.32;88.34
84501;BME280;74725;44.210;17.906;2024-02-28T07:18:34;98168.00;;;14.31;87.70
84501;BME280;74725;44.210;17.906;2024-02-28T07:21:02;98173.56;;;14.40;88.05
84501;BME280;74725;44.210;17.906;2024-02-28T07:23:30;98180.81;;;14.47;87.02
84501;BME280;74725;44.210;17.906;2024-02-28T07:25:55;98179.28;;;14.46;87.06
84501;BME280;74725;44.210;17.906;2024-02-28T07:28:21;98178.72;;;14.51;87.99
84501;BME280;74725;44.210;17.906;2024-02-28T07:30:47;98173.00;;;14.45;86.43
84501;BME280;74725;44.210;17.906;2024-02-28T07:33:13;98177.88;;;14.41;85.83
84501;BME280;74725;44.210;17.906;2024-02-28T07:35:49;98181.41;;;14.41;86.61
84501;BME280;74725;44.210;17.906;2024-02-28T07:38:15;98177.75;;;14.44;86.41
84501;BME280;74725;44.210;17.906;2024-02-28T07:40:43;98181.47;;;14.29;86.66
84501;BME280;74725;44.210;17.906;2024-02-28T07:43:09;98171.59;;;14.18;87.75
84501;BME280;74725;44.210;17.906;2024-02-28T07:45:34;98174.41;;;14.28;86.36
84501;BME280;74725;44.210;17.906;2024-02-28T07:48:00;98174.94;;;14.13;87.56
84501;BME280;74725;44.210;17.906;2024-02-28T07:50:26;98165.72;;;14.29;86.71
84501;BME280;74725;44.210;17.906;2024-02-28T07:52:55;98165.00;;;14.38;86.66
84501;BME280;74725;44.210;17.906;2024-02-28T07:55:21;98169.41;;;14.35;86.77
84501;BME280;74725;44.210;17.906;2024-02-28T07:57:51;98159.94;;;14.36;86.36
84501;BME280;74725;44.210;17.906;2024-02-28T08:00:18;98168.00;;;14.31;86.31
84501;BME280;74725;44.210;17.906;2024-02-28T08:02:45;98166.66;;;14.35;85.95
84501;BME280;74725;44.210;17.906;2024-02-28T08:05:13;98163.91;;;14.35;86.10
84501;BME280;74725;44.210;17.906;2024-02-28T08:07:40;98162.28;;;14.47;84.81
84501;BME280;74725;44.210;17.906;2024-02-28T08:10:06;98164.81;;;14.54;85.11
84501;BME280;74725;44.210;17.906;2024-02-28T08:12:32;98160.00;;;14.67;85.19
84501;BME280;74725;44.210;17.906;2024-02-28T08:14:58;98165.06;;;14.69;83.16
84501;BME280;74725;44.210;17.906;2024-02-28T08:17:23;98163.28;;;14.75;83.31
84501;BME280;74725;44.210;17.906;2024-02-28T08:19:49;98165.72;;;14.82;83.50
84501;BME280;74725;44.210;17.906;2024-02-28T08:22:15;98157.31;;;14.86;82.58
84501;BME280;74725;44.210;17.906;2024-02-28T08:24:41;98147.69;;;14.90;82.37
84501;BME280;74725;44.210;17.906;2024-02-28T08:27:06;98160.78;;;14.99;82.06
84501;BME280;74725;44.210;17.906;2024-02-28T08:29:32;98153.63;;;15.11;82.06
84501;BME280;74725;44.210;17.906;2024-02-28T08:32:01;98147.34;;;15.10;81.76
84501;BME280;74725;44.210;17.906;2024-02-28T08:34:26;98143.38;;;15.21;81.20
84501;BME280;74725;44.210;17.906;2024-02-28T08:36:52;98147.50;;;15.25;81.95
84501;BME280;74725;44.210;17.906;2024-02-28T08:39:17;98151.97;;;15.32;81.23
84501;BME280;74725;44.210;17.906;2024-02-28T08:41:43;98154.16;;;15.46;80.15
84501;BME280;74725;44.210;17.906;2024-02-28T08:44:09;98159.56;;;15.59;78.34
84501;BME280;74725;44.210;17.906;2024-02-28T08:46:35;98152.50;;;15.58;80.12
84501;BME280;74725;44.210;17.906;2024-02-28T08:49:00;98151.16;;;15.72;79.32
84501;BME280;74725;44.210;17.906;2024-02-28T08:51:26;98151.34;;;15.77;78.56
84501;BME280;74725;44.210;17.906;2024-02-28T08:53:52;98159.63;;;15.86;78.70
84501;BME280;74725;44.210;17.906;2024-02-28T08:56:21;98152.56;;;16.04;78.12
84501;BME280;74725;44.210;17.906;2024-02-28T08:58:46;98148.28;;;16.12;77.88
84501;BME280;74725;44.210;17.906;2024-02-28T09:01:15;98151.94;;;16.18;77.14
84501;BME280;74725;44.210;17.906;2024-02-28T09:03:41;98155.28;;;16.41;75.89
84501;BME280;74725;44.210;17.906;2024-02-28T09:06:07;98147.44;;;16.48;76.03
84501;BME280;74725;44.210;17.906;2024-02-28T09:08:33;98148.03;;;16.61;74.07
84501;BME280;74725;44.210;17.906;2024-02-28T09:10:58;98146.66;;;16.66;74.20
84501;BME280;74725;44.210;17.906;2024-02-28T09:13:25;98138.63;;;16.68;73.23
84501;BME280;74725;44.210;17.906;2024-02-28T09:15:52;98147.53;;;16.72;72.48
84501;BME280;74725;44.210;17.906;2024-02-28T09:18:18;98147.56;;;16.81;72.99
84501;BME280;74725;44.210;17.906;2024-02-28T09:20:44;98139.53;;;16.93;72.79
84501;BME280;74725;44.210;17.906;2024-02-28T09:23:09;98142.44;;;16.89;73.78
84501;BME280;74725;44.210;17.906;2024-02-28T09:25:35;98145.69;;;17.21;73.12
84501;BME280;74725;44.210;17.906;2024-02-28T09:28:02;98149.16;;;17.30;71.51
84501;BME280;74725;44.210;17.906;2024-02-28T09:30:27;98149.59;;;17.38;72.24
84501;BME280;74725;44.210;17.906;2024-02-28T09:32:53;98146.06;;;17.61;70.74
84501;BME280;74725;44.210;17.906;2024-02-28T09:35:19;98144.63;;;17.75;69.94
84501;BME280;74725;44.210;17.906;2024-02-28T09:37:45;98149.66;;;18.01;69.53
84501;BME280;74725;44.210;17.906;2024-02-28T09:40:11;98152.56;;;18.21;69.18
84501;BME280;74725;44.210;17.906;2024-02-28T09:42:38;98145.41;;;18.29;68.01
84501;BME280;74725;44.210;17.906;2024-02-28T09:45:04;98151.16;;;18.41;66.89
84501;BME280;74725;44.210;17.906;2024-02-28T09:47:30;98141.09;;;18.58;66.28
84501;BME280;74725;44.210;17.906;2024-02-28T09:49:57;98157.16;;;18.69;64.70
84501;BME280;74725;44.210;17.906;2024-02-28T09:52:26;98140.63;;;18.60;65.42
84501;BME280;74725;44.210;17.906;2024-02-28T09:54:55;98144.84;;;18.55;65.44
84501;BME280;74725;44.210;17.906;2024-02-28T09:57:23;98150.09;;;18.53;65.51
84501;BME280;74725;44.210;17.906;2024-02-28T09:59:56;98143.03;;;18.52;65.63
84501;BME280;74725;44.210;17.906;2024-02-28T10:02:23;98143.69;;;18.62;64.74
84501;BME280;74725;44.210;17.906;2024-02-28T10:04:52;98134.63;;;18.76;65.45
84501;BME280;74725;44.210;17.906;2024-02-28T10:07:18;98128.19;;;18.85;64.70
84501;BME280;74725;44.210;17.906;2024-02-28T10:09:43;98126.63;;;19.13;65.72
84501;BME280;74725;44.210;17.906;2024-02-28T10:12:11;98123.53;;;19.26;64.76
84501;BME280;74725;44.210;17.906;2024-02-28T10:14:37;98113.59;;;19.40;65.02
84501;BME280;74725;44.210;17.906;2024-02-28T10:17:04;98122.28;;;19.47;65.68
84501;BME280;74725;44.210;17.906;2024-02-28T10:19:30;98121.63;;;19.52;64.22
84501;BME280;74725;44.210;17.906;2024-02-28T10:21:56;98119.31;;;19.51;63.05
84501;BME280;74725;44.210;17.906;2024-02-28T10:24:24;98117.09;;;19.55;63.31
84501;BME280;74725;44.210;17.906;2024-02-28T10:26:50;98119.50;;;19.47;61.65
84501;BME280;74725;44.210;17.906;2024-02-28T10:29:25;98118.22;;;19.84;61.75
84501;BME280;74725;44.210;17.906;2024-02-28T10:31:51;98119.13;;;19.95;60.48
84501;BME280;74725;44.210;17.906;2024-02-28T10:34:17;98119.16;;;20.01;61.46
84501;BME280;74725;44.210;17.906;2024-02-28T10:36:44;98112.00;;;20.15;59.61
84501;BME280;74725;44.210;17.906;2024-02-28T10:39:11;98113.63;;;20.27;58.37
84501;BME280;74725;44.210;17.906;2024-02-28T10:41:41;98104.19;;;20.45;59.18
84501;BME280;74725;44.210;17.906;2024-02-28T10:44:08;98100.69;;;20.76;58.90
84501;BME280;74725;44.210;17.906;2024-02-28T10:46:34;98104.78;;;20.86;58.94
84501;BME280;74725;44.210;17.906;2024-02-28T10:49:00;98096.28;;;20.95;55.56
84501;BME280;74725;44.210;17.906;2024-02-28T10:51:26;98093.06;;;21.08;57.48
84501;BME280;74725;44.210;17.906;2024-02-28T10:54:11;98093.47;;;21.33;56.70
84501;BME280;74725;44.210;17.906;2024-02-28T10:56:41;98092.53;;;21.47;55.07
84501;BME280;74725;44.210;17.906;2024-02-28T10:59:07;98092.34;;;21.67;53.12
84501;BME280;74725;44.210;17.906;2024-02-28T11:01:37;98085.22;;;21.55;50.75
84501;BME280;74725;44.210;17.906;2024-02-28T11:04:07;98088.00;;;21.55;52.40
84501;BME280;74725;44.210;17.906;2024-02-28T11:06:33;98080.34;;;21.44;50.73
84501;BME280;74725;44.210;17.906;2024-02-28T11:09:00;98069.94;;;21.34;51.36
84501;BME280;74725;44.210;17.906;2024-02-28T11:11:30;98072.59;;;21.17;51.61
84501;BME280;74725;44.210;17.906;2024-02-28T11:13:57;98074.16;;;21.23;53.94
84501;BME280;74725;44.210;17.906;2024-02-28T11:16:43;98062.97;;;21.12;52.46
84501;BME280;74725;44.210;17.906;2024-02-28T11:19:20;98063.28;;;21.25;51.17
84501;BME280;74725;44.210;17.906;2024-02-28T11:21:55;98062.13;;;21.38;51.57
84501;BME280;74725;44.210;17.906;2024-02-28T11:24:25;98049.19;;;21.35;51.40
84501;BME280;74725;44.210;17.906;2024-02-28T11:26:53;98051.84;;;21.72;46.97
84501;BME280;74725;44.210;17.906;2024-02-28T11:29:26;98044.03;;;21.87;45.19
84501;BME280;74725;44.210;17.906;2024-02-28T11:31:53;98043.56;;;22.06;45.98
84501;BME280;74725;44.210;17.906;2024-02-28T11:34:19;98039.03;;;22.14;44.46
84501;BME280;74725;44.210;17.906;2024-02-28T11:36:49;98038.28;;;22.19;46.22
84501;BME280;74725;44.210;17.906;2024-02-28T11:39:16;98037.78;;;22.32;44.94
84501;BME280;74725;44.210;17.906;2024-02-28T11:41:43;98032.72;;;22.36;44.31
84501;BME280;74725;44.210;17.906;2024-02-28T11:44:15;98027.66;;;22.23;43.20
84501;BME280;74725;44.210;17.906;2024-02-28T11:46:48;98026.63;;;22.49;43.91
84501;BME280;74725;44.210;17.906;2024-02-28T11:49:15;98027.13;;;22.53;42.38
84501;BME280;74725;44.210;17.906;2024-02-28T11:51:45;98017.50;;;22.37;42.32
84501;BME280;74725;44.210;17.906;2024-02-28T11:54:11;98019.25;;;22.45;43.10
84501;BME280;74725;44.210;17.906;2024-02-28T11:56:37;98016.97;;;22.66;41.57
84501;BME280;74725;44.210;17.906;2024-02-28T11:59:04;98004.00;;;22.75;42.58
84501;BME280;74725;44.210;17.906;2024-02-28T12:01:43;98005.50;;;22.87;41.73
84501;BME280;74725;44.210;17.906;2024-02-28T12:04:12;97995.63;;;22.86;39.06
84501;BME280;74725;44.210;17.906;2024-02-28T12:06:40;97993.06;;;22.99;41.63
84501;BME280;74725;44.210;17.906;2024-02-28T12:09:08;97988.50;;;22.90;39.33
84501;BME280;74725;44.210;17.906;2024-02-28T12:11:37;97996.06;;;23.12;42.54
84501;BME280;74725;44.210;17.906;2024-02-28T12:14:04;97989.13;;;23.30;42.04
84501;BME280;74725;44.210;17.906;2024-02-28T12:16:32;97986.50;;;23.55;42.86
84501;BME280;74725;44.210;17.906;2024-02-28T12:18:58;97986.34;;;23.83;40.67
84501;BME280;74725;44.210;17.906;2024-02-28T12:21:23;97991.94;;;23.83;38.34
84501;BME280;74725;44.210;17.906;2024-02-28T12:23:49;97979.38;;;23.95;38.54
84501;BME280;74725;44.210;17.906;2024-02-28T12:26:20;97984.09;;;24.11;38.20
84501;BME280;74725;44.210;17.906;2024-02-28T12:28:46;97976.09;;;24.27;36.31
84501;BME280;74725;44.210;17.906;2024-02-28T12:31:11;97976.72;;;24.44;36.18
84501;BME280;74725;44.210;17.906;2024-02-28T12:33:39;97971.19;;;24.87;36.15
84501;BME280;74725;44.210;17.906;2024-02-28T12:36:05;97974.69;;;25.18;38.08
84501;BME280;74725;44.210;17.906;2024-02-28T12:38:31;97971.53;;;25.65;37.41
84501;BME280;74725;44.210;17.906;2024-02-28T12:40:57;97960.72;;;26.07;38.19
84501;BME280;74725;44.210;17.906;2024-02-28T12:43:23;97964.78;;;26.38;37.63